Time;durP1;ratioP1;P1;durP2;ratioP2;P2;SDS_P1;SDS_P2;PMS_P1;PMS_P2;Temp;Humidity;BMP_temperature;BMP_pressure;BME280_temperature;BME280_humidity;BME280_pressure;Samples;Min_cycle;Max_cycle;Signal;HPM_P1;HPM_P2
2024/03/14 00:00:16;;;;;;;4.15;1.73;;;5.40;99.90;;;;;;5075026;28;20443;-77
2024/03/14 00:02:43;;;;;;;3.72;2.50;;;5.40;99.90;;;;;;5074541;28;20021;-77
2024/03/14 00:05:09;;;;;;;3.03;1.98;;;5.40;99.90;;;;;;5057545;28;20074;-77
2024/03/14 00:07:35;;;;;;;6.85;2.13;;;5.30;99.90;;;;;;5057142;28;20028;-77
2024/03/14 00:10:01;;;;;;;3.65;2.35;;;5.30;99.90;;;;;;5074888;28;20111;-78
2024/03/14 00:12:27;;;;;;;3.58;2.55;;;5.20;99.90;;;;;;5056580;28;20154;-77
2024/03/14 00:14:53;;;;;;;4.28;1.98;;;5.20;99.90;;;;;;5074891;28;20048;-77
2024/03/14 00:17:19;;;;;;;3.30;2.25;;;5.20;99.90;;;;;;5056728;28;20024;-77
2024/03/14 00:19:46;;;;;;;5.03;3.90;;;5.20;99.90;;;;;;5056755;28;20020;-77
2024/03/14 00:22:13;;;;;;;4.72;2.85;;;5.20;99.90;;;;;;5056410;28;20074;-77
2024/03/14 00:24:38;;;;;;;3.60;2.20;;;5.30;99.90;;;;;;5055454;28;20020;-77
2024/03/14 00:27:04;;;;;;;4.07;2.67;;;5.30;99.90;;;;;;5056804;28;20025;-77
2024/03/14 00:29:33;;;;;;;3.22;2.17;;;5.30;99.90;;;;;;5074656;28;20017;-77
2024/03/14 00:31:59;;;;;;;3.17;2.13;;;5.40;99.90;;;;;;5074144;28;20020;-77
2024/03/14 00:34:26;;;;;;;2.88;2.17;;;5.50;99.90;;;;;;5056635;28;20028;-77
2024/03/14 00:36:53;;;;;;;4.07;2.03;;;5.40;99.90;;;;;;5056570;28;20025;-78
2024/03/14 00:39:19;;;;;;;4.22;2.20;;;5.40;99.90;;;;;;5074331;28;20025;-77
2024/03/14 00:41:45;;;;;;;3.38;2.33;;;5.40;99.90;;;;;;5056103;28;20028;-77
2024/03/14 00:44:10;;;;;;;5.10;2.08;;;5.40;99.90;;;;;;5056399;28;20036;-77
2024/03/14 00:46:36;;;;;;;5.22;3.08;;;5.30;99.90;;;;;;5074417;28;20020;-77
2024/03/14 00:49:02;;;;;;;3.67;2.20;;;5.30;99.90;;;;;;5074177;28;20060;-77
2024/03/14 00:51:28;;;;;;;3.20;2.45;;;5.30;99.90;;;;;;5055994;28;20020;-77
2024/03/14 00:53:55;;;;;;;5.28;2.42;;;5.40;99.90;;;;;;5056330;28;20093;-77
2024/03/14 00:56:21;;;;;;;4.70;2.55;;;5.40;99.90;;;;;;5074072;28;20528;-77
2024/03/14 00:58:47;;;;;;;3.17;2.60;;;5.40;99.90;;;;;;5074231;28;20063;-77
2024/03/14 01:01:16;;;;;;;2.95;2.65;;;5.40;99.90;;;;;;5073833;28;20035;-77
2024/03/14 01:03:41;;;;;;;4.03;2.72;;;5.40;99.90;;;;;;5073708;28;20024;-77
2024/03/14 01:06:11;;;;;;;3.17;2.08;;;5.50;99.90;;;;;;5073976;28;20024;-77
2024/03/14 01:08:37;;;;;;;3.33;2.40;;;5.50;99.90;;;;;;5074043;28;20107;-77
2024/03/14 01:11:03;;;;;;;3.70;2.65;;;5.50;99.90;;;;;;5073770;28;20097;-77
2024/03/14 01:13:29;;;;;;;4.07;2.75;;;5.50;99.90;;;;;;5073309;28;20109;-77
2024/03/14 01:15:56;;;;;;;3.20;2.22;;;5.60;99.90;;;;;;5073732;28;20475;-77
2024/03/14 01:18:21;;;;;;;4.53;2.28;;;5.70;99.90;;;;;;5073810;28;20111;-77
2024/03/14 01:20:48;;;;;;;2.03;1.65;;;5.80;99.90;;;;;;5073661;28;20515;-77
2024/03/14 01:23:14;;;;;;;3.20;2.53;;;5.80;99.90;;;;;;5073262;28;20031;-77
2024/03/14 01:25:42;;;;;;;2.75;2.03;;;5.70;99.90;;;;;;5073807;28;20024;-77
2024/03/14 01:28:09;;;;;;;4.25;2.50;;;5.60;99.90;;;;;;5073468;28;20021;-77
2024/03/14 01:30:34;;;;;;;3.60;2.03;;;5.60;99.90;;;;;;5073446;28;20021;-78
2024/03/14 01:33:00;;;;;;;4.30;2.38;;;5.70;99.90;;;;;;5055209;28;20032;-77
2024/03/14 01:35:26;;;;;;;2.58;2.00;;;5.60;99.90;;;;;;5055194;28;20119;-77
2024/03/14 01:37:52;;;;;;;2.53;1.75;;;5.60;99.90;;;;;;5055458;28;20059;-77
2024/03/14 01:40:17;;;;;;;3.60;2.25;;;5.50;99.90;;;;;;5073204;28;20029;-77
2024/03/14 01:42:44;;;;;;;2.95;2.00;;;5.50;99.90;;;;;;5054965;28;20059;-77
2024/03/14 01:45:10;;;;;;;2.85;1.70;;;5.50;99.90;;;;;;5055192;28;20045;-77
2024/03/14 01:47:37;;;;;;;3.88;1.63;;;5.50;99.90;;;;;;5073311;28;20028;-77
2024/03/14 01:50:05;;;;;;;2.58;1.67;;;5.60;99.90;;;;;;5055097;28;20024;-77
2024/03/14 01:52:34;;;;;;;3.63;1.98;;;5.60;99.90;;;;;;5072737;28;20021;-77
2024/03/14 01:55:00;;;;;;;3.65;1.90;;;5.60;99.90;;;;;;5073178;28;20104;-77
2024/03/14 01:57:26;;;;;;;2.08;1.80;;;5.60;99.90;;;;;;5073018;28;20059;-77
2024/03/14 02:02:27;;;;;;;2.47;2.00;;;5.70;99.90;;;;;;5656067;22;20103;-80
2024/03/14 02:05:12;;;;;;;3.00;2.40;;;5.80;99.90;;;;;;5016395;28;20095;-79
2024/03/14 02:07:38;;;;;;;2.78;1.80;;;6.30;99.90;;;;;;5016412;28;20075;-79
2024/03/14 02:10:10;;;;;;;3.13;2.63;;;5.30;99.90;;;;;;5016289;28;20417;-79
2024/03/14 02:12:38;;;;;;;2.35;2.10;;;6.30;99.90;;;;;;5033815;28;20025;-80
2024/03/14 02:15:05;;;;;;;4.30;2.40;;;6.50;99.90;;;;;;5016264;28;20032;-79
2024/03/14 02:17:31;;;;;;;2.92;2.33;;;5.00;99.90;;;;;;5016116;28;20024;-80
2024/03/14 02:19:56;;;;;;;3.72;2.33;;;5.40;99.90;;;;;;5016247;28;20131;-80
2024/03/14 02:22:22;;;;;;;4.20;2.25;;;6.40;99.90;;;;;;5016064;28;20547;-80
2024/03/14 02:24:51;;;;;;;4.10;1.80;;;6.40;99.90;;;;;;5016105;28;20021;-79
2024/03/14 02:27:18;;;;;;;4.00;2.10;;;7.20;99.90;;;;;;5015929;28;20518;-80
2024/03/14 02:29:44;;;;;;;2.33;1.92;;;6.20;99.90;;;;;;5015712;28;20049;-79
2024/03/14 02:32:09;;;;;;;4.15;1.95;;;6.10;99.90;;;;;;5015736;28;20060;-80
2024/03/14 02:34:36;;;;;;;5.40;2.38;;;5.10;99.90;;;;;;5023866;28;20032;-79
2024/03/14 02:37:02;;;;;;;4.07;1.98;;;5.70;99.90;;;;;;5039429;28;20528;-79
2024/03/14 02:39:29;;;;;;;3.47;2.45;;;6.10;99.90;;;;;;5015842;28;20025;-79
2024/03/14 02:41:56;;;;;;;3.58;2.28;;;6.60;99.90;;;;;;5015690;28;20033;-80
2024/03/14 02:44:22;;;;;;;3.70;1.95;;;6.00;99.90;;;;;;5033358;28;20028;-80
2024/03/14 02:46:50;;;;;;;2.78;2.05;;;6.60;99.90;;;;;;5015207;28;20021;-79
2024/03/14 02:49:18;;;;;;;3.95;1.73;;;6.60;99.90;;;;;;5015364;28;20085;-80
2024/03/14 02:51:45;;;;;;;3.03;1.48;;;5.90;99.90;;;;;;5015553;28;20048;-80
2024/03/14 02:54:17;;;;;;;2.97;1.73;;;5.60;99.90;;;;;;5015625;28;20025;-80
2024/03/14 02:56:46;;;;;;;3.25;1.90;;;6.30;99.90;;;;;;5015569;28;20036;-79
2024/03/14 02:59:15;;;;;;;2.90;1.98;;;6.00;99.90;;;;;;5033086;28;20103;-79
2024/03/14 03:01:41;;;;;;;3.42;2.00;;;6.50;99.90;;;;;;5033084;28;20391;-79
2024/03/14 03:04:09;;;;;;;2.85;2.38;;;6.10;99.90;;;;;;5015426;28;20068;-79
2024/03/14 03:06:36;;;;;;;2.38;2.08;;;6.20;99.90;;;;;;5015436;28;20041;-79
2024/03/14 03:09:05;;;;;;;2.85;2.03;;;6.40;99.90;;;;;;5015494;28;20029;-80
2024/03/14 03:11:33;;;;;;;2.90;1.95;;;6.20;99.90;;;;;;5015431;28;20072;-79
2024/03/14 03:13:59;;;;;;;3.67;2.08;;;6.00;99.90;;;;;;5015477;28;20128;-79
2024/03/14 03:16:25;;;;;;;2.97;2.05;;;5.70;99.90;;;;;;5015302;28;20054;-78
2024/03/14 03:18:50;;;;;;;2.80;2.05;;;6.10;99.90;;;;;;5015503;28;20492;-80
2024/03/14 03:21:18;;;;;;;3.13;2.50;;;5.90;99.90;;;;;;5015377;28;20029;-80
2024/03/14 03:23:43;;;;;;;5.72;2.92;;;6.30;99.90;;;;;;5015097;28;20033;-79
2024/03/14 03:26:10;;;;;;;6.32;2.78;;;6.30;99.90;;;;;;5015274;28;20484;-80
2024/03/14 03:28:36;;;;;;;4.05;2.13;;;6.70;99.90;;;;;;5015255;28;20032;-79
2024/03/14 03:31:08;;;;;;;3.42;2.15;;;6.70;99.90;;;;;;5018694;28;20021;-79
2024/03/14 03:33:33;;;;;;;3.47;2.00;;;6.50;99.90;;;;;;5023583;28;20057;-80
2024/03/14 03:35:59;;;;;;;5.45;1.83;;;6.50;99.90;;;;;;5015291;28;20119;-78
2024/03/14 03:38:25;;;;;;;3.42;1.67;;;6.30;99.90;;;;;;5015401;28;20523;-80
2024/03/14 03:40:51;;;;;;;3.33;1.83;;;6.30;99.90;;;;;;5015024;28;20028;-78
2024/03/14 03:43:17;;;;;;;2.53;1.80;;;6.40;99.90;;;;;;5032685;28;20057;-79
2024/03/14 03:45:44;;;;;;;3.65;2.10;;;6.40;99.90;;;;;;5014646;28;20708;-79
2024/03/14 03:48:11;;;;;;;3.88;2.20;;;6.40;99.90;;;;;;5024669;28;20439;-80
2024/03/14 03:53:21;;;;;;;3.42;1.90;;;6.10;99.90;;;;;;5724656;22;20054;-79
2024/03/14 03:55:47;;;;;;;2.55;1.52;;;7.90;99.90;;;;;;5015091;28;20119;-80
2024/03/14 03:58:13;;;;;;;3.50;2.22;;;6.40;99.90;;;;;;5015418;28;20017;-79
2024/03/14 04:00:44;;;;;;;2.10;1.67;;;6.70;99.90;;;;;;5018736;28;20024;-79
2024/03/14 04:03:14;;;;;;;3.33;2.15;;;6.80;99.90;;;;;;5018623;28;20037;-79
2024/03/14 04:05:43;;;;;;;2.55;1.73;;;6.30;99.90;;;;;;5018624;28;20396;-80
2024/03/14 04:08:09;;;;;;;4.00;2.30;;;6.70;99.90;;;;;;5036193;28;20068;-79
2024/03/14 04:10:35;;;;;;;2.13;1.60;;;6.60;99.90;;;;;;5018392;28;20029;-79
2024/03/14 04:13:01;;;;;;;3.35;1.65;;;6.60;99.90;;;;;;5018322;28;20087;-80
2024/03/14 04:15:30;;;;;;;2.72;1.83;;;6.40;99.90;;;;;;5018281;28;20049;-80
2024/03/14 04:17:56;;;;;;;2.47;1.60;;;6.30;99.90;;;;;;5036081;28;20499;-80
2024/03/14 04:20:27;;;;;;;2.47;2.15;;;6.20;99.90;;;;;;5018173;28;20025;-79
2024/03/14 04:22:53;;;;;;;5.55;2.92;;;6.30;99.90;;;;;;5018243;28;20485;-80
2024/03/14 04:25:20;;;;;;;4.78;2.03;;;6.00;99.90;;;;;;5018123;28;20399;-79
2024/03/14 04:27:51;;;;;;;3.70;1.65;;;6.00;99.90;;;;;;5035767;28;20391;-79
2024/03/14 04:30:20;;;;;;;3.92;1.90;;;6.30;99.90;;;;;;5017689;28;20392;-79
2024/03/14 04:32:50;;;;;;;2.60;1.50;;;5.60;99.90;;;;;;5017955;28;20029;-79
2024/03/14 04:35:17;;;;;;;2.63;2.28;;;6.50;99.90;;;;;;5018315;28;20060;-79
2024/03/14 04:37:43;;;;;;;4.15;2.50;;;6.40;99.90;;;;;;5018014;28;20492;-78
2024/03/14 04:40:13;;;;;;;2.90;1.90;;;7.00;99.90;;;;;;5035545;28;20021;-79
2024/03/14 04:42:40;;;;;;;2.75;2.05;;;6.50;99.90;;;;;;5035384;28;20545;-79
2024/03/14 04:45:11;;;;;;;2.28;1.35;;;7.10;99.90;;;;;;5022685;28;20073;-80
2024/03/14 04:47:37;;;;;;;3.47;2.10;;;6.60;99.90;;;;;;5017685;28;20025;-79
2024/03/14 04:50:09;;;;;;;2.30;1.77;;;7.00;99.90;;;;;;5017785;28;20056;-79
2024/03/14 04:52:36;;;;;;;3.13;1.77;;;6.00;99.90;;;;;;5017274;28;20026;-79
2024/03/14 04:55:08;;;;;;;3.53;1.90;;;6.60;99.90;;;;;;5017697;28;20551;-78
2024/03/14 04:57:34;;;;;;;3.25;2.33;;;6.50;99.90;;;;;;5016056;28;20032;-80
2024/03/14 05:00:00;;;;;;;5.15;2.47;;;6.70;99.90;;;;;;5000250;28;20049;-80
2024/03/14 05:02:29;;;;;;;5.45;1.80;;;6.40;99.90;;;;;;5025200;28;20032;-79
2024/03/14 05:04:57;;;;;;;3.60;1.88;;;6.30;99.90;;;;;;4998063;28;20472;-78
2024/03/14 05:07:25;;;;;;;3.00;2.00;;;6.60;99.90;;;;;;4998004;28;20114;-80
2024/03/14 05:09:54;;;;;;;4.55;2.35;;;6.80;99.90;;;;;;4996958;28;20030;-78
2024/03/14 05:12:19;;;;;;;3.75;1.90;;;6.90;99.90;;;;;;4997574;28;20026;-80
2024/03/14 05:14:46;;;;;;;5.28;1.65;;;6.20;99.90;;;;;;4997782;28;20029;-80
2024/03/14 05:17:13;;;;;;;9.65;6.07;;;6.50;99.90;;;;;;4997651;28;20503;-79
2024/03/14 05:19:39;;;;;;;9.35;7.50;;;7.00;99.90;;;;;;5015173;28;20059;-80
2024/03/14 05:22:04;;;;;;;58.60;35.58;;;6.40;99.90;;;;;;5022922;28;20018;-80
2024/03/14 05:24:30;;;;;;;14.55;10.88;;;6.40;99.90;;;;;;4997575;28;20026;-81
2024/03/14 05:26:59;;;;;;;10.73;4.70;;;6.60;99.90;;;;;;5014909;28;20094;-80
2024/03/14 05:29:26;;;;;;;5.85;2.38;;;5.90;99.90;;;;;;5014809;28;20469;-80
2024/03/14 05:31:51;;;;;;;5.35;2.00;;;6.20;99.90;;;;;;4997352;28;20029;-79
2024/03/14 05:34:17;;;;;;;4.00;1.92;;;6.30;99.90;;;;;;4997455;28;20025;-78
2024/03/14 05:36:43;;;;;;;3.33;2.38;;;7.10;99.90;;;;;;4997351;28;20037;-80
2024/03/14 05:39:09;;;;;;;4.28;3.05;;;6.00;99.90;;;;;;4997263;28;20022;-80
2024/03/14 05:44:33;;;;;;;2.65;2.30;;;6.30;99.90;;;;;;5563342;23;20050;-79
2024/03/14 05:46:59;;;;;;;2.45;2.03;;;6.50;99.90;;;;;;5016779;28;20083;-79
2024/03/14 05:49:25;;;;;;;3.55;2.60;;;6.70;99.90;;;;;;5016501;28;20061;-79
2024/03/14 05:51:51;;;;;;;7.60;4.22;;;6.60;99.90;;;;;;5034142;28;20097;-79
2024/03/14 05:54:17;;;;;;;9.18;3.78;;;6.70;99.90;;;;;;5034529;28;20026;-79
2024/03/14 05:56:42;;;;;;;6.13;3.63;;;6.40;99.90;;;;;;5016646;28;20079;-78
2024/03/14 05:59:08;;;;;;;5.70;2.58;;;6.60;99.90;;;;;;5034237;28;20028;-78
2024/03/14 06:04:12;;;;;;;5.53;3.00;;;6.40;99.90;;;;;;5322297;22;20428;-75
2024/03/14 06:06:38;;;;;;;3.53;2.10;;;6.50;99.90;;;;;;5022886;28;20028;-73
2024/03/14 06:09:04;;;;;;;4.88;3.15;;;7.30;99.90;;;;;;5025973;28;20013;-74
2024/03/14 06:11:33;;;;;;;6.57;3.90;;;7.20;99.90;;;;;;5023490;28;20025;-73
2024/03/14 06:13:59;;;;;;;5.72;3.60;;;7.20;99.90;;;;;;5035429;28;20024;-76
2024/03/14 06:16:26;;;;;;;4.10;2.90;;;7.00;99.90;;;;;;5017425;28;20065;-75
2024/03/14 06:18:51;;;;;;;8.43;4.78;;;6.90;99.90;;;;;;4994952;28;20033;-74
2024/03/14 06:21:17;;;;;;;6.43;3.30;;;6.80;99.90;;;;;;5011485;28;20029;-75
2024/03/14 06:23:43;;;;;;;4.97;2.55;;;6.90;99.90;;;;;;5003190;28;20448;-75
2024/03/14 06:26:08;;;;;;;5.68;2.47;;;7.00;99.90;;;;;;5014557;28;20029;-75
2024/03/14 06:28:35;;;;;;;3.55;1.90;;;7.10;99.90;;;;;;5030845;28;20080;-74
2024/03/14 06:31:03;;;;;;;4.53;3.60;;;7.00;99.90;;;;;;5012298;28;20577;-76
2024/03/14 06:33:28;;;;;;;6.47;3.60;;;7.10;99.90;;;;;;5011854;28;20026;-74
2024/03/14 06:35:55;;;;;;;4.75;4.20;;;7.20;99.90;;;;;;5011972;28;20060;-75
2024/03/14 06:38:21;;;;;;;5.72;3.63;;;7.20;99.90;;;;;;4994750;28;20072;-74
2024/03/14 06:40:48;;;;;;;5.03;3.75;;;7.30;99.90;;;;;;5012037;28;20071;-76
2024/03/14 06:43:14;;;;;;;7.07;3.20;;;7.40;99.90;;;;;;4994223;28;20076;-75
2024/03/14 06:45:40;;;;;;;6.43;4.18;;;7.40;99.90;;;;;;4996815;28;20030;-75
2024/03/14 06:48:06;;;;;;;6.13;2.75;;;7.50;99.90;;;;;;5031723;28;20018;-75
2024/03/14 06:50:32;;;;;;;4.25;2.50;;;7.60;99.90;;;;;;5014430;28;20091;-75
2024/03/14 06:53:02;;;;;;;6.20;2.47;;;7.60;99.90;;;;;;5017810;28;20032;-75
2024/03/14 06:55:29;;;;;;;3.55;2.65;;;7.60;99.90;;;;;;5025920;28;20030;-75
2024/03/14 06:57:54;;;;;;;3.40;2.90;;;7.60;99.90;;;;;;5024224;28;20299;-74
2024/03/14 07:00:24;;;;;;;3.78;2.72;;;7.60;99.90;;;;;;5018147;28;20037;-76
2024/03/14 07:02:50;;;;;;;3.30;1.77;;;7.70;99.90;;;;;;5003705;28;20189;-75
2024/03/14 07:05:16;;;;;;;6.70;2.70;;;7.70;99.90;;;;;;5012073;28;20484;-75
2024/03/14 07:07:44;;;;;;;4.07;2.58;;;7.70;99.90;;;;;;4995567;28;20403;-74
2024/03/14 07:10:13;;;;;;;8.55;2.67;;;7.80;99.90;;;;;;5028985;28;20021;-75
2024/03/14 07:12:41;;;;;;;4.85;2.65;;;7.80;99.90;;;;;;5002886;28;20029;-75
2024/03/14 07:15:07;;;;;;;5.13;2.22;;;7.80;99.90;;;;;;5023695;28;20422;-74
2024/03/14 07:17:35;;;;;;;3.28;2.22;;;8.00;99.90;;;;;;5030392;28;20029;-74
2024/03/14 07:20:18;;;;;;;4.38;2.38;;;8.10;99.90;;;;;;5031391;28;20030;-75
2024/03/14 07:22:45;;;;;;;7.78;2.65;;;8.20;99.90;;;;;;5013248;28;20026;-75
2024/03/14 07:25:13;;;;;;;3.55;2.40;;;8.30;99.90;;;;;;5013998;28;20395;-74
2024/03/14 07:27:39;;;;;;;3.15;1.80;;;8.40;99.90;;;;;;5015194;28;20017;-76
2024/03/14 07:30:13;;;;;;;2.47;2.28;;;8.50;99.90;;;;;;5014577;28;20025;-75
2024/03/14 07:32:39;;;;;;;4.07;2.40;;;8.80;99.90;;;;;;5012757;28;20056;-75
2024/03/14 07:35:06;;;;;;;2.58;2.05;;;8.80;99.90;;;;;;5008746;28;20034;-74
2024/03/14 07:37:31;;;;;;;2.63;2.05;;;8.90;99.90;;;;;;5016744;28;20036;-75
2024/03/14 07:39:57;;;;;;;3.63;2.58;;;9.00;99.90;;;;;;5009926;28;20025;-75
2024/03/14 07:42:23;;;;;;;2.45;1.35;;;9.10;99.90;;;;;;5009586;28;20026;-75
2024/03/14 07:44:50;;;;;;;5.13;2.42;;;10.10;99.90;;;;;;5009781;28;20395;-73
2024/03/14 07:47:25;;;;;;;6.70;2.80;;;10.60;99.90;;;;;;5030264;28;20018;-73
2024/03/14 07:49:53;;;;;;;4.20;2.65;;;10.40;99.90;;;;;;5016032;28;20100;-74
2024/03/14 07:52:19;;;;;;;4.68;2.33;;;10.30;99.90;;;;;;4999661;28;20040;-75
2024/03/14 07:54:47;;;;;;;5.22;2.28;;;10.10;99.90;;;;;;4999137;28;20113;-75
2024/03/14 07:57:14;;;;;;;2.60;2.35;;;10.00;99.90;;;;;;4998080;28;20053;-75
2024/03/14 07:59:41;;;;;;;2.92;2.50;;;10.10;99.90;;;;;;5039375;23;20025;-77
2024/03/14 08:02:16;;;;;;;6.05;2.35;;;10.10;99.90;;;;;;5055075;28;20139;-77
2024/03/14 08:04:44;;;;;;;4.63;2.90;;;10.30;99.90;;;;;;5055119;28;20028;-77
2024/03/14 08:07:10;;;;;;;3.00;2.10;;;10.30;99.90;;;;;;5055311;28;20075;-77
2024/03/14 08:09:43;;;;;;;5.50;2.33;;;10.50;99.90;;;;;;5039196;28;20029;-78
2024/03/14 08:12:09;;;;;;;3.72;2.65;;;11.60;99.90;;;;;;5051286;28;20512;-77
2024/03/14 08:14:43;;;;;;;7.13;2.50;;;11.60;99.90;;;;;;5053273;28;20036;-76
2024/03/14 08:17:15;;;;;;;3.53;2.67;;;11.50;99.90;;;;;;5051712;28;20035;-77
2024/03/14 08:19:44;;;;;;;4.25;2.70;;;11.30;99.90;;;;;;5046313;28;20083;-77
2024/03/14 08:22:10;;;;;;;2.63;2.00;;;11.20;99.90;;;;;;5049210;28;20031;-77
2024/03/14 08:24:42;;;;;;;6.25;2.60;;;11.20;98.80;;;;;;5036861;28;20108;-77
2024/03/14 08:27:10;;;;;;;6.10;4.00;;;11.20;98.40;;;;;;5039099;28;20017;-77
2024/03/14 08:29:36;;;;;;;7.85;6.13;;;11.00;99.90;;;;;;5054046;28;20017;-77
2024/03/14 08:32:03;;;;;;;9.30;6.68;;;11.20;99.90;;;;;;5031081;28;20386;-77
2024/03/14 08:34:29;;;;;;;11.35;6.45;;;11.30;99.90;;;;;;5045435;28;20040;-77
2024/03/14 08:36:58;;;;;;;10.70;5.68;;;11.20;98.50;;;;;;5056859;28;20025;-78
2024/03/14 08:39:26;;;;;;;10.05;6.22;;;11.30;99.90;;;;;;5050687;28;20070;-78
2024/03/14 08:41:52;;;;;;;5.35;3.08;;;11.40;99.90;;;;;;5050001;28;20041;-78
2024/03/14 08:44:18;;;;;;;3.20;2.15;;;11.40;99.60;;;;;;5038240;28;20394;-77
2024/03/14 08:46:44;;;;;;;4.88;2.92;;;11.60;99.90;;;;;;5035328;28;20049;-77
2024/03/14 08:49:13;;;;;;;9.65;5.72;;;11.80;99.90;;;;;;5046719;28;20889;-76
2024/03/14 08:51:38;;;;;;;4.78;3.35;;;12.00;99.60;;;;;;5036516;28;20041;-77
2024/03/14 08:54:08;;;;;;;3.67;2.80;;;12.20;99.20;;;;;;5048728;28;20093;-77
2024/03/14 08:56:35;;;;;;;19.85;12.18;;;12.10;98.60;;;;;;5047745;28;20021;-77
2024/03/14 08:59:02;;;;;;;17.30;9.77;;;12.20;97.80;;;;;;5056062;28;20040;-79
2024/03/14 09:01:29;;;;;;;7.93;5.65;;;12.30;99.90;;;;;;5037070;28;20116;-76
2024/03/14 09:03:55;;;;;;;5.45;4.20;;;12.30;97.90;;;;;;5045543;28;20030;-77
2024/03/14 09:06:20;;;;;;;3.33;2.50;;;12.10;94.90;;;;;;5032279;28;20024;-77
2024/03/14 09:08:46;;;;;;;4.03;2.42;;;12.00;95.60;;;;;;5047054;28;20026;-77
2024/03/14 09:11:13;;;;;;;5.93;4.28;;;12.00;96.90;;;;;;5037606;28;20017;-77
2024/03/14 09:13:40;;;;;;;4.75;3.10;;;12.20;96.90;;;;;;5054741;28;20036;-78
2024/03/14 09:16:06;;;;;;;7.10;4.45;;;11.90;95.50;;;;;;5037902;28;20161;-77
2024/03/14 09:18:32;;;;;;;5.65;4.07;;;12.00;96.70;;;;;;5055299;28;20028;-76
2024/03/14 09:20:58;;;;;;;9.40;5.93;;;12.20;96.10;;;;;;5055067;28;20128;-76
2024/03/14 09:23:25;;;;;;;8.90;5.35;;;12.30;95.40;;;;;;5054271;28;20163;-76
2024/03/14 09:25:57;;;;;;;5.10;3.72;;;12.40;95.50;;;;;;5055290;28;20028;-77
2024/03/14 09:28:25;;;;;;;5.72;3.45;;;12.30;93.80;;;;;;5055453;28;20025;-77
2024/03/14 09:30:57;;;;;;;5.38;3.53;;;12.00;93.20;;;;;;5037540;28;20027;-77
2024/03/14 09:33:27;;;;;;;2.90;2.55;;;11.90;93.50;;;;;;5053979;28;20025;-77
2024/03/14 09:35:52;;;;;;;3.85;2.33;;;11.70;92.30;;;;;;5037144;28;20025;-77
2024/03/14 09:38:18;;;;;;;4.53;2.85;;;11.80;92.90;;;;;;5035279;28;20402;-76
2024/03/14 09:40:44;;;;;;;4.70;3.35;;;12.10;94.20;;;;;;5052722;28;20116;-76
2024/03/14 09:43:14;;;;;;;4.82;2.88;;;12.40;95.50;;;;;;5047841;28;20043;-75
2024/03/14 09:45:42;;;;;;;5.22;3.25;;;12.60;94.60;;;;;;5045562;28;20116;-76
2024/03/14 09:48:08;;;;;;;5.15;3.70;;;12.70;95.30;;;;;;5045022;28;20096;-78
2024/03/14 09:50:35;;;;;;;4.60;2.55;;;12.60;94.70;;;;;;5026556;28;20053;-77
2024/03/14 09:53:03;;;;;;;4.05;2.03;;;12.50;92.90;;;;;;5042715;28;20506;-77
2024/03/14 09:55:30;;;;;;;5.03;2.65;;;12.50;92.40;;;;;;5049183;28;20040;-77
2024/03/14 09:57:57;;;;;;;3.88;2.25;;;12.60;91.90;;;;;;5028972;28;20106;-77
2024/03/14 10:00:25;;;;;;;6.32;2.88;;;12.60;92.20;;;;;;5054542;28;20029;-77
2024/03/14 10:02:56;;;;;;;5.88;2.47;;;12.70;91.60;;;;;;5053641;28;20028;-77
2024/03/14 10:05:22;;;;;;;7.28;2.85;;;12.60;91.70;;;;;;5053634;28;20017;-76
2024/03/14 10:07:49;;;;;;;3.67;2.25;;;12.40;95.10;;;;;;5053583;28;20079;-76
2024/03/14 10:10:15;;;;;;;4.22;3.05;;;12.30;94.90;;;;;;5035679;28;20033;-77
2024/03/14 10:12:51;;;;;;;6.60;5.10;;;12.40;95.60;;;;;;5053808;28;20032;-76
2024/03/14 10:15:18;;;;;;;3.45;2.53;;;12.80;96.00;;;;;;5054012;28;20029;-77
2024/03/14 10:17:45;;;;;;;9.18;6.03;;;12.70;93.20;;;;;;5035483;28;20025;-78
2024/03/14 10:20:15;;;;;;;6.00;4.38;;;12.70;94.50;;;;;;5053444;28;20021;-77
2024/03/14 10:22:46;;;;;;;3.22;2.75;;;12.80;92.90;;;;;;5035982;28;20391;-77
2024/03/14 10:25:17;;;;;;;5.28;3.15;;;12.90;92.50;;;;;;5034305;28;20047;-76
2024/03/14 10:27:48;;;;;;;3.85;2.92;;;13.10;92.60;;;;;;5052131;28;20692;-77
2024/03/14 10:30:16;;;;;;;8.13;4.00;;;13.00;91.70;;;;;;5052162;28;20082;-76
2024/03/14 10:32:43;;;;;;;4.68;3.38;;;12.90;92.90;;;;;;5033460;28;20068;-76
2024/03/14 10:35:14;;;;;;;4.13;2.17;;;13.20;93.00;;;;;;5052376;28;20049;-76
2024/03/14 10:37:41;;;;;;;8.95;4.55;;;13.40;88.70;;;;;;5051984;28;20025;-76
2024/03/14 10:40:09;;;;;;;6.05;2.33;;;13.50;90.30;;;;;;5052228;28;20060;-75
2024/03/14 10:42:37;;;;;;;3.90;2.47;;;13.30;90.60;;;;;;5033422;28;20048;-76
2024/03/14 10:45:05;;;;;;;4.00;2.47;;;13.10;91.60;;;;;;5052061;28;20017;-75
2024/03/14 10:47:32;;;;;;;10.55;6.40;;;13.40;92.70;;;;;;5033976;28;20017;-76
2024/03/14 10:49:58;;;;;;;13.80;6.30;;;13.60;93.10;;;;;;5052139;28;20021;-76
2024/03/14 10:52:25;;;;;;;11.13;4.95;;;13.70;92.90;;;;;;5051006;28;20079;-76
2024/03/14 10:54:53;;;;;;;10.55;4.80;;;13.90;92.50;;;;;;5052099;28;20636;-76
2024/03/14 10:57:19;;;;;;;9.50;5.57;;;13.90;91.90;;;;;;5034155;28;20390;-76
2024/03/14 10:59:47;;;;;;;5.03;2.38;;;14.10;92.10;;;;;;5051763;28;20109;-75
2024/03/14 11:02:16;;;;;;;4.03;2.53;;;14.30;91.00;;;;;;5051888;28;20494;-76
2024/03/14 11:04:42;;;;;;;7.65;4.40;;;14.50;86.40;;;;;;5051788;28;20032;-75
2024/03/14 11:07:08;;;;;;;18.42;7.43;;;14.50;88.60;;;;;;5051360;28;20472;-74
2024/03/14 11:09:46;;;;;;;10.85;5.18;;;14.50;90.40;;;;;;5032965;28;20032;-76
2024/03/14 11:12:20;;;;;;;9.45;3.67;;;14.30;90.30;;;;;;5051046;28;20051;-76
2024/03/14 11:14:51;;;;;;;6.13;3.72;;;14.40;90.00;;;;;;5033962;28;20033;-75
2024/03/14 11:17:20;;;;;;;2.42;1.73;;;14.40;87.70;;;;;;5034593;28;20022;-77
2024/03/14 11:19:52;;;;;;;14.93;5.43;;;14.40;86.40;;;;;;5049367;28;20037;-76
2024/03/14 11:22:19;;;;;;;8.00;3.30;;;14.60;86.20;;;;;;5042366;28;20017;-76
2024/03/14 11:24:52;;;;;;;4.20;2.20;;;14.40;87.40;;;;;;5033659;28;20079;-76
2024/03/14 11:27:20;;;;;;;3.50;2.15;;;14.60;84.60;;;;;;5051341;28;20043;-76
2024/03/14 11:29:47;;;;;;;7.15;3.22;;;14.30;85.00;;;;;;5033253;28;20486;-76
2024/03/14 11:32:18;;;;;;;3.78;2.22;;;14.00;86.00;;;;;;5050534;28;20025;-77
2024/03/14 11:34:46;;;;;;;5.03;2.30;;;13.80;84.60;;;;;;5025358;28;20404;-76
2024/03/14 11:37:14;;;;;;;2.10;1.67;;;14.10;81.90;;;;;;5051390;28;20021;-77
2024/03/14 11:39:45;;;;;;;27.70;8.80;;;14.30;81.70;;;;;;5050928;28;20391;-77
2024/03/14 11:42:12;;;;;;;20.08;7.68;;;14.50;84.30;;;;;;5051957;28;20086;-77
2024/03/14 11:44:42;;;;;;;5.38;2.88;;;14.40;83.90;;;;;;5035158;28;20032;-76
2024/03/14 11:47:13;;;;;;;4.65;2.55;;;14.30;84.10;;;;;;5033871;28;20025;-76
2024/03/14 11:49:43;;;;;;;2.13;1.88;;;14.60;82.30;;;;;;5051701;28;20021;-76
2024/03/14 11:52:11;;;;;;;17.45;6.90;;;14.90;80.90;;;;;;5050552;28;20047;-77
2024/03/14 11:54:40;;;;;;;8.45;3.53;;;15.10;84.20;;;;;;5051108;28;20037;-77
2024/03/14 11:57:07;;;;;;;17.13;5.28;;;15.20;82.30;;;;;;5051355;28;20021;-77
2024/03/14 11:59:34;;;;;;;13.95;4.82;;;15.10;81.50;;;;;;5051130;28;20444;-77
2024/03/14 12:02:00;;;;;;;12.73;5.63;;;15.20;80.30;;;;;;5050532;28;20483;-77
2024/03/14 12:04:26;;;;;;;13.70;5.93;;;15.00;82.00;;;;;;5051122;28;20031;-77
2024/03/14 12:06:51;;;;;;;2.78;2.00;;;15.20;82.40;;;;;;5051936;28;20486;-77
2024/03/14 12:09:24;;;;;;;8.90;3.63;;;15.50;79.50;;;;;;5033509;28;20025;-77
2024/03/14 12:11:51;;;;;;;14.10;5.50;;;15.20;80.50;;;;;;5041100;28;20049;-75
2024/03/14 12:14:20;;;;;;;10.90;3.55;;;15.20;81.70;;;;;;5050929;28;20029;-75
2024/03/14 12:16:47;;;;;;;11.95;4.55;;;15.50;80.60;;;;;;5033231;28;20025;-76
2024/03/14 12:19:16;;;;;;;13.43;5.88;;;15.70;81.20;;;;;;5051313;28;20029;-75
2024/03/14 12:22:02;;;;;;;8.18;2.65;;;15.90;79.00;;;;;;5035977;28;20032;-76
2024/03/14 12:24:27;;;;;;;;;;;15.70;78.40;;;;;;5036063;28;20041;-76
2024/03/14 12:26:57;;;;;;;1.63;1.48;;;15.90;76.50;;;;;;5054510;28;20324;-76
2024/03/14 12:29:27;;;;;;;12.38;3.63;;;15.50;73.70;;;;;;5035159;28;20029;-76
2024/03/14 12:31:55;;;;;;;2.47;1.52;;;15.10;71.70;;;;;;5039159;28;20039;-76
2024/03/14 12:34:22;;;;;;;2.70;1.50;;;15.20;71.70;;;;;;5045357;28;20025;-75
2024/03/14 12:36:51;;;;;;;9.50;3.83;;;15.40;74.10;;;;;;5036407;28;20494;-76
2024/03/14 12:39:17;;;;;;;7.93;4.20;;;15.60;84.80;;;;;;5055050;28;20064;-76
2024/03/14 12:41:43;;;;;;;5.20;3.70;;;15.80;75.20;;;;;;5052456;28;20082;-75
2024/03/14 12:44:09;;;;;;;2.10;1.70;;;15.90;70.80;;;;;;5036875;28;20029;-76
2024/03/14 12:46:35;;;;;;;2.08;1.55;;;15.60;72.10;;;;;;5054144;28;20025;-75
2024/03/14 12:49:03;;;;;;;1.33;1.23;;;15.20;73.20;;;;;;5053793;28;20032;-76
2024/03/14 12:51:29;;;;;;;1.40;1.08;;;15.10;72.00;;;;;;5035390;28;20048;-76
2024/03/14 12:53:55;;;;;;;1.38;1.20;;;14.80;73.50;;;;;;5054035;28;20618;-76
2024/03/14 12:56:22;;;;;;;1.02;0.90;;;14.90;74.80;;;;;;5036533;28;20449;-76
2024/03/14 12:58:53;;;;;;;1.45;1.13;;;14.90;76.00;;;;;;5053804;28;20025;-76
2024/03/14 13:01:19;;;;;;;3.63;1.23;;;15.20;75.90;;;;;;5036201;28;20032;-77
2024/03/14 13:03:45;;;;;;;1.30;0.95;;;15.40;72.20;;;;;;5053768;28;20109;-76